Time;durP1;ratioP1;P1;durP2;ratioP2;P2;SDS_P1;SDS_P2;PMS_P1;PMS_P2;Temp;Humidity;BMP_temperature;BMP_pressure;BME280_temperature;BME280_humidity;BME280_pressure;Samples;Min_cycle;Max_cycle;Signal;HPM_P1;HPM_P2
2023/02/24 00:02:00;;;;;;;8.33;1.53;;;;;;;4.45;100.00;101210.31;4980305;28;20265;-69
2023/02/24 00:04:32;;;;;;;8.37;1.23;;;;;;;4.43;100.00;101206.84;4975445;28;20195;-68
2023/02/24 00:06:58;;;;;;;7.70;1.37;;;;;;;4.46;100.00;101209.56;4980038;28;20192;-69
2023/02/24 00:09:26;;;;;;;7.43;1.40;;;;;;;4.45;100.00;101215.41;4981901;28;20187;-69
2023/02/24 00:12:01;;;;;;;11.50;2.27;;;;;;;4.47;100.00;101213.81;4982568;28;20219;-69
2023/02/24 00:14:29;;;;;;;9.60;1.27;;;;;;;4.44;100.00;101219.63;4983106;28;20198;-69
2023/02/24 00:16:57;;;;;;;7.53;1.60;;;;;;;4.45;100.00;101207.78;4980545;28;20249;-69
2023/02/24 00:19:25;;;;;;;8.73;1.23;;;;;;;4.46;100.00;101209.56;4983290;28;20183;-70
2023/02/24 00:21:53;;;;;;;7.37;1.60;;;;;;;4.42;100.00;101198.38;4983827;28;20232;-68
2023/02/24 00:24:20;;;;;;;5.17;1.47;;;;;;;4.43;100.00;101197.59;4980684;28;20201;-69
2023/02/24 00:26:49;;;;;;;7.17;1.60;;;;;;;4.43;100.00;101199.25;4979515;28;20207;-68
2023/02/24 00:29:15;;;;;;;6.73;1.57;;;;;;;4.41;100.00;101186.50;4983668;28;20695;-68
2023/02/24 00:31:41;;;;;;;9.67;1.30;;;;;;;4.42;100.00;101195.84;4981445;28;20306;-69
2023/02/24 00:34:08;;;;;;;9.07;1.93;;;;;;;4.41;100.00;101189.03;4986853;28;20192;-69
2023/02/24 00:36:33;;;;;;;6.10;1.33;;;;;;;4.40;100.00;101189.84;4977307;28;20184;-69
2023/02/24 00:39:07;;;;;;;7.73;1.77;;;;;;;4.40;100.00;101189.84;4983923;28;20568;-69
2023/02/24 00:41:35;;;;;;;12.73;2.17;;;;;;;4.40;100.00;101178.81;4979301;28;20212;-69
2023/02/24 00:44:08;;;;;;;8.10;1.40;;;;;;;4.41;100.00;101183.97;4986832;28;20218;-70
2023/02/24 00:46:45;;;;;;;5.63;1.40;;;;;;;4.40;100.00;101173.75;4981809;28;20188;-70
2023/02/24 00:49:15;;;;;;;9.70;1.83;;;;;;;4.40;100.00;101166.13;4984424;28;20187;-69
2023/02/24 00:51:42;;;;;;;13.20;2.10;;;;;;;4.40;100.00;101171.22;4980712;28;20325;-68
2023/02/24 00:54:13;;;;;;;8.67;1.63;;;;;;;4.41;100.00;101162.81;4981662;28;20191;-70
2023/02/24 00:56:43;;;;;;;8.97;1.83;;;;;;;4.38;100.00;101155.94;4981482;28;20197;-69
2023/02/24 00:59:10;;;;;;;6.83;1.20;;;;;;;4.39;100.00;101156.81;4982657;28;20202;-70
2023/02/24 01:01:35;;;;;;;6.90;1.87;;;;;;;4.39;100.00;101159.34;4979168;28;20235;-69
2023/02/24 01:04:10;;;;;;;5.83;1.30;;;;;;;4.40;100.00;101148.41;4986296;28;20203;-69
2023/02/24 01:06:41;;;;;;;7.53;1.63;;;;;;;4.39;100.00;101141.59;4979710;28;20768;-70
2023/02/24 01:09:07;;;;;;;9.13;2.03;;;;;;;4.39;100.00;101142.47;4985521;28;20589;-69
2023/02/24 01:14:21;;;;;;;4.13;1.30;;;;;;;4.39;100.00;101131.47;4991899;28;20192;-69
2023/02/24 01:16:50;;;;;;;9.00;1.50;;;;;;;4.38;100.00;101132.25;4982382;28;20271;-70
2023/02/24 01:19:18;;;;;;;4.03;1.33;;;;;;;4.36;100.00;101122.03;4983763;28;20203;-69
2023/02/24 01:21:44;;;;;;;9.03;1.77;;;;;;;4.37;100.00;101122.94;4959451;28;20250;-69
2023/02/24 01:24:14;;;;;;;5.63;1.13;;;;;;;4.37;100.00;101120.41;4984036;28;20207;-68
2023/02/24 01:26:40;;;;;;;9.30;1.47;;;;;;;4.36;100.00;101121.16;4981979;28;20256;-69
2023/02/24 01:29:09;;;;;;;9.47;1.60;;;;;;;4.35;100.00;101117.78;4982475;28;20210;-68
2023/02/24 01:31:39;;;;;;;9.50;1.60;;;;;;;4.36;100.00;101104.31;4982129;28;20212;-67
2023/02/24 01:34:04;;;;;;;13.03;1.40;;;;;;;4.32;100.00;101102.41;4987696;28;20187;-67
2023/02/24 01:36:31;;;;;;;8.90;1.33;;;;;;;4.29;100.00;101094.69;4981448;28;20861;-70
2023/02/24 01:38:59;;;;;;;6.50;1.27;;;;;;;4.28;100.00;101095.47;4989886;28;20658;-70
2023/02/24 01:41:26;;;;;;;8.80;1.43;;;;;;;4.26;100.00;101088.56;4984239;28;20254;-69
2023/02/24 01:44:31;;;;;;;7.67;1.93;;;;;;;4.25;100.00;101082.66;4984398;28;20204;-68
2023/02/24 01:47:00;;;;;;;7.03;1.50;;;;;;;4.21;100.00;101082.41;5000086;28;20279;-68
2023/02/24 01:49:33;;;;;;;8.80;1.73;;;;;;;4.19;100.00;101076.44;4991323;28;20219;-69
2023/02/24 01:52:02;;;;;;;5.90;1.80;;;;;;;4.18;100.00;101072.16;4982495;28;20267;-68
2023/02/24 01:54:38;;;;;;;5.20;1.57;;;;;;;4.17;100.00;101071.28;4989044;28;20180;-69
2023/02/24 01:57:04;;;;;;;15.23;1.70;;;;;;;4.16;100.00;101069.56;4982221;28;20188;-67
2023/02/24 01:59:34;;;;;;;10.63;2.00;;;;;;;4.16;100.00;101071.19;4987727;28;20284;-68
2023/02/24 02:02:03;;;;;;;13.53;1.70;;;;;;;4.13;100.00;101066.84;4983520;28;20332;-68
2023/02/24 02:04:44;;;;;;;8.40;1.67;;;;;;;4.15;100.00;101057.66;4988919;28;20192;-69
2023/02/24 02:07:16;;;;;;;9.63;1.90;;;;;;;4.13;100.00;101054.19;4986363;28;20211;-69
2023/02/24 02:09:43;;;;;;;9.10;1.93;;;;;;;4.16;100.00;101056.00;5007195;28;20245;-69
2023/02/24 02:12:09;;;;;;;7.90;1.33;;;;;;;4.14;100.00;101055.91;4984770;28;20211;-69
2023/02/24 02:14:37;;;;;;;10.63;1.57;;;;;;;4.12;100.00;101042.31;4989616;28;20195;-69
2023/02/24 02:17:29;;;;;;;11.07;1.90;;;;;;;4.15;100.00;101044.13;4984852;28;20709;-69
2023/02/24 02:19:58;;;;;;;9.83;1.80;;;;;;;4.09;100.00;101031.19;4989250;28;20176;-68
2023/02/24 02:22:29;;;;;;;10.23;1.70;;;;;;;4.06;100.00;101034.44;4981367;28;20212;-69
2023/02/24 02:25:16;;;;;;;12.27;1.60;;;;;;;4.02;100.00;101030.03;4984908;28;20334;-68
2023/02/24 02:28:11;;;;;;;8.43;2.00;;;;;;;4.03;100.00;101030.88;4983124;28;20179;-71
2023/02/24 02:31:16;;;;;;;10.93;1.87;;;;;;;4.03;100.00;101023.28;5002205;28;20273;-67
2023/02/24 02:33:51;;;;;;;6.83;1.30;;;;;;;4.06;100.00;101014.19;5001870;28;20186;-69
2023/02/24 02:36:31;;;;;;;13.70;2.27;;;;;;;4.03;100.00;101005.53;4996440;28;20231;-70
2023/02/24 02:39:28;;;;;;;8.57;1.73;;;;;;;4.03;100.00;101006.41;4983984;28;20769;-69
2023/02/24 02:42:00;;;;;;;9.03;1.90;;;;;;;4.01;100.00;100994.47;4985557;28;20310;-69
2023/02/24 02:44:38;;;;;;;9.50;1.50;;;;;;;4.02;100.00;100999.63;4993443;28;20216;-68
2023/02/24 02:47:25;;;;;;;10.53;1.63;;;;;;;4.02;100.00;100994.56;4983937;28;20642;-68
2023/02/24 02:50:07;;;;;;;7.33;1.73;;;;;;;4.02;100.00;100994.56;4984785;28;20196;-69
2023/02/24 02:52:41;;;;;;;9.20;1.57;;;;;;;4.02;100.00;100986.06;5001307;28;20273;-70
2023/02/24 02:55:14;;;;;;;8.43;1.37;;;;;;;4.02;100.00;100983.53;4989153;28;20211;-69
2023/02/24 02:57:46;;;;;;;5.17;1.37;;;;;;;4.00;100.00;100975.88;4982721;28;20192;-68
2023/02/24 03:00:21;;;;;;;11.57;2.43;;;;;;;4.02;100.00;100981.00;4983310;28;20213;-69
2023/02/24 03:02:54;;;;;;;11.43;1.87;;;;;;;4.01;100.00;100972.53;4986187;28;20207;-70
2023/02/24 03:05:29;;;;;;;11.90;1.80;;;;;;;3.98;100.00;100964.81;5000587;28;20200;-70
2023/02/24 03:07:57;;;;;;;9.20;1.47;;;;;;;3.95;100.00;100964.66;4982109;28;20218;-70
2023/02/24 03:10:28;;;;;;;14.13;1.77;;;;;;;3.95;100.00;100962.13;4987271;28;20191;-68
2023/02/24 03:12:58;;;;;;;8.60;1.60;;;;;;;3.96;100.00;100952.88;4983208;28;20216;-70
2023/02/24 03:15:26;;;;;;;9.80;1.60;;;;;;;3.97;100.00;100947.00;4976756;28;20276;-69
2023/02/24 03:18:02;;;;;;;9.03;1.77;;;;;;;3.94;100.00;100950.25;4983179;28;20196;-69
2023/02/24 03:20:34;;;;;;;6.03;1.57;;;;;;;3.94;100.00;100944.31;4990825;28;20219;-68
2023/02/24 03:23:02;;;;;;;8.53;2.17;;;;;;;3.92;100.00;100940.84;4970676;28;20250;-69
2023/02/24 03:25:43;;;;;;;9.47;1.70;;;;;;;3.92;100.00;100939.19;4986771;28;20195;-69
2023/02/24 03:28:18;;;;;;;5.63;1.27;;;;;;;3.92;100.00;100934.09;4984113;28;20323;-69
2023/02/24 03:30:53;;;;;;;9.50;1.47;;;;;;;3.91;100.00;100929.84;4984525;28;20179;-69
2023/02/24 03:33:25;;;;;;;7.77;1.57;;;;;;;3.92;100.00;100929.03;4979188;28;20191;-68
2023/02/24 03:35:51;;;;;;;8.80;2.03;;;;;;;3.92;100.00;100916.38;4989865;28;20753;-69
2023/02/24 03:38:18;;;;;;;10.13;1.63;;;;;;;3.93;100.00;100918.13;4984896;28;20270;-69
2023/02/24 03:40:44;;;;;;;9.23;1.57;;;;;;;3.95;100.00;100918.22;4987705;28;20203;-70
2023/02/24 03:43:20;;;;;;;5.37;1.43;;;;;;;3.94;100.00;100913.94;4988064;28;20208;-66
2023/02/24 03:45:47;;;;;;;8.40;1.50;;;;;;;3.95;100.00;100911.47;4985847;28;20186;-70
2023/02/24 03:48:13;;;;;;;7.83;1.17;;;;;;;3.93;100.00;100904.59;4985539;28;20211;-69
2023/02/24 03:50:41;;;;;;;10.67;2.13;;;;;;;3.95;100.00;100901.34;4989546;28;20196;-68
2023/02/24 03:53:32;;;;;;;9.77;1.23;;;;;;;3.93;100.00;100897.00;4980509;28;20192;-66
2023/02/24 03:56:23;;;;;;;6.87;1.40;;;;;;;3.93;100.00;100894.47;4992273;28;20282;-69
2023/02/24 03:59:41;;;;;;;4.43;1.30;;;;;;;3.92;100.00;100885.16;4979971;28;20664;-70
2023/02/24 04:02:19;;;;;;;6.60;1.37;;;;;;;3.89;100.00;100883.34;5002019;28;20648;-69
2023/02/24 04:05:08;;;;;;;5.27;1.37;;;;;;;3.89;100.00;100882.47;4985110;28;20672;-69
2023/02/24 04:08:04;;;;;;;8.50;1.63;;;;;;;3.87;100.00;100872.25;4988357;28;20278;-70
2023/02/24 04:10:38;;;;;;;6.63;1.20;;;;;;;3.89;100.00;100865.63;4986319;28;20196;-69
2023/02/24 04:13:21;;;;;;;12.47;2.10;;;;;;;3.89;100.00;100860.53;4984603;28;20253;-69
2023/02/24 04:15:58;;;;;;;7.03;1.60;;;;;;;3.89;100.00;100858.00;4986502;28;20176;-68
2023/02/24 04:18:29;;;;;;;5.57;1.20;;;;;;;3.90;100.00;100856.34;4973090;28;20260;-68
2023/02/24 04:20:58;;;;;;;5.57;1.13;;;;;;;3.88;100.00;100847.81;4988119;28;20614;-67
2023/02/24 04:23:30;;;;;;;9.33;1.40;;;;;;;3.89;100.00;100840.28;4981691;28;20204;-68
2023/02/24 04:25:56;;;;;;;15.23;2.00;;;;;;;3.89;100.00;100834.34;4989152;28;20216;-69
2023/02/24 04:28:24;;;;;;;7.67;1.60;;;;;;;3.89;100.00;100816.63;4986178;28;20184;-69
2023/02/24 04:30:54;;;;;;;4.73;1.13;;;;;;;3.91;100.00;100817.56;4986169;28;20211;-69
2023/02/24 04:33:20;;;;;;;11.37;1.60;;;;;;;3.92;100.00;100804.09;4982830;28;20180;-69
2023/02/24 04:35:52;;;;;;;9.63;1.60;;;;;;;3.90;100.00;100796.44;4987883;28;20664;-69
2023/02/24 04:38:18;;;;;;;10.93;1.57;;;;;;;3.90;100.00;100798.97;4983686;28;20192;-70
2023/02/24 04:40:44;;;;;;;5.67;1.30;;;;;;;3.86;100.00;100779.38;4991888;28;20218;-70
2023/02/24 04:43:10;;;;;;;4.63;1.27;;;;;;;3.83;100.00;100789.38;4984100;28;20251;-69
2023/02/24 04:45:38;;;;;;;7.37;1.77;;;;;;;3.83;100.00;100776.72;4982555;28;20553;-69
2023/02/24 04:48:09;;;;;;;8.77;1.60;;;;;;;3.80;100.00;100771.50;4988997;28;20672;-69
2023/02/24 04:50:35;;;;;;;6.13;1.50;;;;;;;3.78;100.00;100765.50;4989852;28;20185;-69
2023/02/24 04:53:06;;;;;;;4.93;1.27;;;;;;;3.78;100.00;100759.56;4983243;28;20204;-69
2023/02/24 04:55:39;;;;;;;6.10;1.20;;;;;;;3.78;100.00;100755.34;4984004;28;20342;-70
2023/02/24 04:58:05;;;;;;;5.37;1.30;;;;;;;3.80;100.00;100746.19;4982870;28;20192;-68
2023/02/24 05:00:34;;;;;;;4.67;1.10;;;;;;;3.80;100.00;100747.84;4987065;28;20215;-67
2023/02/24 05:03:03;;;;;;;3.77;1.47;;;;;;;3.79;100.00;100741.94;4983868;28;20569;-69
2023/02/24 05:05:32;;;;;;;8.57;1.83;;;;;;;3.79;100.00;100738.50;4986602;28;20218;-70
2023/02/24 05:08:06;;;;;;;8.57;1.63;;;;;;;3.79;100.00;100738.50;4988506;28;20180;-70
2023/02/24 05:10:43;;;;;;;9.73;2.07;;;;;;;3.77;100.00;100733.38;4983863;28;20187;-69
2023/02/24 05:13:12;;;;;;;4.17;1.50;;;;;;;3.77;100.00;100719.88;4984987;28;20219;-69
2023/02/24 05:15:41;;;;;;;5.73;1.57;;;;;;;3.75;100.00;100716.38;4993215;28;20533;-69
2023/02/24 05:18:08;;;;;;;4.93;1.43;;;;;;;3.74;100.00;100719.72;4991341;28;20283;-68
2023/02/24 05:23:52;;;;;;;6.37;1.60;;;;;;;3.69;100.00;100694.19;4987374;28;20658;-69
2023/02/24 05:26:20;;;;;;;11.57;1.70;;;;;;;3.68;100.00;100692.47;4997809;28;20199;-69
2023/02/24 05:28:48;;;;;;;8.40;1.80;;;;;;;3.66;100.00;100683.97;4991581;28;20617;-69
2023/02/24 05:31:17;;;;;;;7.93;1.87;;;;;;;3.66;100.00;100676.38;4993020;28;20290;-69
2023/02/24 05:33:46;;;;;;;4.00;1.70;;;;;;;3.66;100.00;100689.03;4983823;28;20187;-68
2023/02/24 05:36:16;;;;;;;9.73;1.73;;;;;;;3.64;100.00;100670.34;4986238;28;20672;-68
2023/02/24 05:38:42;;;;;;;7.80;1.80;;;;;;;3.64;100.00;100672.03;4987602;28;20183;-68
2023/02/24 05:41:18;;;;;;;10.30;2.43;;;;;;;3.61;100.00;100660.13;4989648;28;20254;-69
2023/02/24 05:43:52;;;;;;;5.97;1.60;;;;;;;3.61;100.00;100655.06;4986763;28;20198;-68
2023/02/24 05:46:31;;;;;;;8.80;1.43;;;;;;;3.61;100.00;100644.94;4989682;28;20548;-68
2023/02/24 05:49:08;;;;;;;6.63;1.50;;;;;;;3.63;100.00;100634.88;4984396;28;20601;-69
2023/02/24 05:51:35;;;;;;;6.70;1.80;;;;;;;3.63;100.00;100633.19;4980970;28;20218;-67
2023/02/24 05:54:03;;;;;;;7.40;1.47;;;;;;;3.65;100.00;100640.84;4989413;28;20196;-67
2023/02/24 05:56:33;;;;;;;6.33;1.50;;;;;;;3.65;100.00;100621.47;4989068;28;20211;-69
2023/02/24 05:59:03;;;;;;;7.73;2.37;;;;;;;3.66;100.00;100625.75;4990260;28;20812;-68
2023/02/24 06:01:31;;;;;;;10.67;2.30;;;;;;;3.67;100.00;100612.28;4992118;28;20264;-68
2023/02/24 06:04:04;;;;;;;5.67;1.67;;;;;;;3.69;100.00;100623.31;4982895;28;20175;-68
2023/02/24 06:06:39;;;;;;;12.40;1.90;;;;;;;3.70;100.00;100611.53;4989094;28;20736;-69
2023/02/24 06:09:09;;;;;;;8.43;1.73;;;;;;;3.72;100.00;100607.44;4988730;28;20275;-68
2023/02/24 06:11:40;;;;;;;8.70;1.90;;;;;;;3.74;100.00;100603.28;4988850;28;20216;-69
2023/02/24 06:14:06;;;;;;;11.20;2.00;;;;;;;3.74;100.00;100601.63;4988716;28;20247;-68
2023/02/24 06:16:33;;;;;;;8.30;1.83;;;;;;;3.75;100.00;100599.94;4987317;28;20199;-69
2023/02/24 06:18:59;;;;;;;7.90;1.80;;;;;;;3.75;100.00;100588.16;4987453;28;20195;-69
2023/02/24 06:21:28;;;;;;;9.50;2.10;;;;;;;3.75;100.00;100593.22;4990488;28;20215;-69
2023/02/24 06:23:57;;;;;;;7.27;1.87;;;;;;;3.77;100.00;100591.59;4992197;28;20254;-69
2023/02/24 06:26:28;;;;;;;9.47;1.63;;;;;;;3.77;100.00;100585.69;4988966;28;20206;-66
2023/02/24 06:28:56;;;;;;;11.40;2.27;;;;;;;3.77;100.00;100578.94;4990581;28;20271;-69
2023/02/24 06:31:21;;;;;;;15.93;6.67;;;;;;;3.78;100.00;100578.13;4988619;28;20231;-69
2023/02/24 06:33:47;;;;;;;12.10;5.17;;;;;;;3.79;100.00;100572.28;4993470;28;20659;-67
2023/02/24 06:36:13;;;;;;;10.20;2.53;;;;;;;3.81;100.00;100572.34;4989155;28;20626;-69
2023/02/24 06:38:39;;;;;;;8.87;2.50;;;;;;;3.80;100.00;100571.50;4990445;28;20684;-68
2023/02/24 06:41:12;;;;;;;7.60;1.90;;;;;;;3.79;100.00;100567.22;4987296;28;20302;-67
2023/02/24 06:43:40;;;;;;;9.90;1.70;;;;;;;3.78;100.00;100565.47;4988544;28;20218;-67
2023/02/24 06:46:06;;;;;;;6.10;2.00;;;;;;;3.76;100.00;100556.97;4985375;28;20203;-68
2023/02/24 06:48:32;;;;;;;5.93;2.17;;;;;;;3.77;100.00;100556.16;4993065;28;20203;-68
2023/02/24 06:51:04;;;;;;;6.50;2.50;;;;;;;3.76;100.00;100559.50;4990406;28;20287;-68
2023/02/24 06:53:34;;;;;;;6.43;1.80;;;;;;;3.78;100.00;100564.63;4992966;28;20220;-68
2023/02/24 06:56:06;;;;;;;6.40;1.90;;;;;;;3.75;100.00;100545.13;4981317;28;20267;-68
2023/02/24 06:58:31;;;;;;;8.77;1.57;;;;;;;3.71;100.00;100550.84;4991948;28;20529;-70
2023/02/24 07:00:57;;;;;;;11.17;1.90;;;;;;;3.69;100.00;100544.00;4986707;28;20273;-69
2023/02/24 07:03:38;;;;;;;9.03;2.33;;;;;;;3.70;100.00;100550.78;4985119;28;20277;-67
2023/02/24 07:06:21;;;;;;;4.97;1.60;;;;;;;3.69;100.00;100539.78;4987254;28;20196;-69
2023/02/24 07:08:47;;;;;;;5.97;2.40;;;;;;;3.63;100.00;100547.13;4987830;28;20191;-69
2023/02/24 07:11:15;;;;;;;6.60;1.70;;;;;;;3.58;100.00;100543.53;4990155;28;20204;-68
2023/02/24 07:13:40;;;;;;;10.17;2.43;;;;;;;3.50;100.00;100532.22;4996028;28;20194;-67
2023/02/24 07:16:06;;;;;;;9.50;2.30;;;;;;;3.56;100.00;100521.50;4989032;28;20575;-69
2023/02/24 07:18:39;;;;;;;7.23;2.23;;;;;;;3.54;100.00;100521.44;4988277;28;20629;-69
2023/02/24 07:21:10;;;;;;;7.93;2.73;;;;;;;3.51;100.00;100517.94;4986194;28;20215;-68
2023/02/24 07:23:40;;;;;;;8.40;3.00;;;;;;;3.41;100.00;100521.72;4993496;28;20191;-67
2023/02/24 07:26:11;;;;;;;8.83;3.27;;;;;;;3.35;100.00;100513.03;4985714;28;20179;-67
2023/02/24 07:28:39;;;;;;;13.90;3.70;;;;;;;3.32;100.00;100512.91;4988967;28;20203;-67
2023/02/24 07:31:13;;;;;;;12.43;3.23;;;;;;;3.28;100.00;100503.44;4983624;28;20274;-68
2023/02/24 07:33:39;;;;;;;8.37;3.10;;;;;;;3.25;100.00;100506.72;4989388;28;20218;-69
2023/02/24 07:36:09;;;;;;;6.33;3.37;;;;;;;3.17;100.00;100502.13;4982422;28;20189;-69
2023/02/24 07:38:39;;;;;;;11.43;3.57;;;;;;;3.13;100.00;100482.56;4988283;28;20283;-69
2023/02/24 07:41:06;;;;;;;8.17;3.60;;;;;;;3.10;100.00;100488.38;4984792;28;20742;-69
2023/02/24 07:43:33;;;;;;;9.83;3.77;;;;;;;3.10;100.00;100484.97;4988567;28;20184;-69
2023/02/24 07:46:13;;;;;;;9.37;4.07;;;;;;;3.00;100.00;100475.25;4986759;28;20183;-69
2023/02/24 07:48:40;;;;;;;9.80;3.87;;;;;;;3.02;100.00;100471.13;4991356;28;20217;-69
2023/02/24 07:51:11;;;;;;;8.07;3.67;;;;;;;2.99;100.00;100463.41;4985700;28;20254;-69
2023/02/24 07:53:40;;;;;;;9.83;4.67;;;;;;;2.97;100.00;100465.00;4983902;28;20205;-69
2023/02/24 07:56:13;;;;;;;9.67;4.43;;;;;;;2.89;100.00;100452.03;4986907;28;20292;-68
2023/02/24 07:58:50;;;;;;;10.90;4.00;;;;;;;2.94;100.00;100457.31;4993478;28;20191;-70
2023/02/24 08:01:21;;;;;;;10.67;4.77;;;;;;;2.98;100.00;100449.03;4988524;28;20258;-68
2023/02/24 08:03:54;;;;;;;9.90;4.67;;;;;;;2.91;100.00;100442.88;4986667;28;20199;-69
2023/02/24 08:06:36;;;;;;;8.87;4.50;;;;;;;2.91;100.00;100444.53;4985578;28;20267;-68
2023/02/24 08:09:15;;;;;;;6.60;4.67;;;;;;;2.89;100.00;100436.03;4988410;28;20269;-69
2023/02/24 08:11:44;;;;;;;9.90;4.23;;;;;;;2.86;100.00;100436.75;4991129;28;20217;-68
2023/02/24 08:14:14;;;;;;;9.37;4.80;;;;;;;2.87;100.00;100427.50;4982462;28;20200;-68
2023/02/24 08:16:42;;;;;;;8.93;4.50;;;;;;;2.85;100.00;100429.09;4986112;28;20218;-68
2023/02/24 08:19:12;;;;;;;8.30;4.70;;;;;;;2.82;100.00;100418.84;4987381;28;20642;-70
2023/02/24 08:21:46;;;;;;;8.60;4.73;;;;;;;2.81;100.00;100417.13;4993488;28;20482;-69
2023/02/24 08:24:18;;;;;;;5.17;4.17;;;;;;;2.72;100.00;100410.00;4987000;28;20193;-69
2023/02/24 08:27:02;;;;;;;5.97;3.90;;;;;;;2.70;100.00;100408.19;4984748;28;20194;-69
2023/02/24 08:29:39;;;;;;;12.20;4.73;;;;;;;2.70;100.00;100405.66;4983487;28;20180;-70
2023/02/24 08:32:10;;;;;;;11.03;4.70;;;;;;;2.73;100.00;100403.28;4988288;28;20742;-69
2023/02/24 08:34:36;;;;;;;7.70;4.60;;;;;;;2.67;100.00;100386.19;4989984;28;20196;-70
2023/02/24 08:37:03;;;;;;;9.80;5.03;;;;;;;2.65;100.00;100381.88;4989178;28;20732;-69
2023/02/24 08:39:30;;;;;;;10.67;5.23;;;;;;;2.66;100.00;100374.34;4991789;28;20692;-70
2023/02/24 08:41:56;;;;;;;7.33;4.13;;;;;;;2.64;100.00;100378.50;4989585;28;20226;-70
2023/02/24 08:44:25;;;;;;;8.73;4.70;;;;;;;2.64;100.00;100375.97;4986778;28;20188;-70
2023/02/24 08:46:52;;;;;;;6.87;4.60;;;;;;;2.64;100.00;100360.81;4991748;28;20207;-70
2023/02/24 08:49:18;;;;;;;9.17;4.97;;;;;;;2.63;100.00;100353.16;4986729;28;20243;-66
2023/02/24 08:51:46;;;;;;;7.37;4.93;;;;;;;2.66;100.00;100346.56;4991644;28;20940;-70
2023/02/24 08:54:15;;;;;;;8.70;4.97;;;;;;;2.65;100.00;100344.84;4987143;28;20865;-70
2023/02/24 08:56:54;;;;;;;6.73;5.30;;;;;;;2.59;100.00;100334.50;4993051;28;20218;-68
2023/02/24 08:59:36;;;;;;;10.13;6.17;;;;;;;2.57;100.00;100320.91;4984951;28;20192;-69
2023/02/24 09:02:22;;;;;;;12.77;6.57;;;;;;;2.53;100.00;100305.56;4990960;28;20231;-69
2023/02/24 09:04:56;;;;;;;12.87;6.60;;;;;;;2.55;100.00;100302.31;4982877;28;20518;-68
2023/02/24 09:07:28;;;;;;;7.60;6.80;;;;;;;2.81;100.00;100295.81;5005554;28;20188;-68
2023/02/24 09:09:55;;;;;;;10.07;7.90;;;;;;;2.88;100.00;100301.16;4985434;28;20289;-67
2023/02/24 09:12:23;;;;;;;11.90;7.03;;;;;;;2.72;100.00;100308.06;4989699;28;20697;-69
2023/02/24 09:14:56;;;;;;;13.10;8.00;;;;;;;2.70;100.00;100299.53;4990627;28;20194;-68
2023/02/24 09:17:39;;;;;;;11.97;8.37;;;;;;;2.68;100.00;100289.41;4990469;28;20669;-70
2023/02/24 09:22:59;;;;;;;10.77;9.27;;;;;;;2.74;100.00;100263.47;4989255;28;20322;-71
2023/02/24 09:25:39;;;;;;;10.87;9.03;;;;;;;2.79;100.00;100264.53;4978378;28;20210;-70
2023/02/24 09:28:08;;;;;;;9.40;8.47;;;;;;;2.78;100.00;100267.88;4976514;28;20219;-71
2023/02/24 09:30:49;;;;;;;10.87;9.03;;;;;;;2.81;100.00;100250.31;4984813;28;20292;-69
2023/02/24 09:33:37;;;;;;;12.23;8.93;;;;;;;2.82;100.00;100252.03;4989647;28;20196;-69
2023/02/24 09:36:11;;;;;;;10.63;9.53;;;;;;;2.77;100.00;100240.88;4979290;28;20188;-71
2023/02/24 09:41:53;;;;;;;10.57;9.23;;;;;;;2.80;100.00;100253.66;4985400;28;20231;-66
2023/02/24 09:44:34;;;;;;;14.73;10.10;;;;;;;2.85;100.00;100230.25;4988594;28;20188;-69
2023/02/24 09:47:12;;;;;;;11.30;9.43;;;;;;;2.92;100.00;100227.19;4986463;28;20203;-69
2023/02/24 09:49:57;;;;;;;12.33;9.73;;;;;;;2.97;100.00;100224.81;4986752;28;20195;-69
2023/02/24 09:52:40;;;;;;;11.17;8.37;;;;;;;2.98;100.00;100232.47;4990211;28;20212;-70
2023/02/24 09:55:25;;;;;;;9.93;8.17;;;;;;;3.06;100.00;100222.66;4980555;28;20188;-69
2023/02/24 10:01:19;;;;;;;10.87;8.57;;;;;;;2.97;100.00;100207.13;4988091;28;20213;-70
2023/02/24 10:04:03;;;;;;;9.27;7.60;;;;;;;3.01;100.00;100191.28;4992491;28;20190;-70
2023/02/24 10:06:41;;;;;;;12.10;7.73;;;;;;;3.11;100.00;100211.03;4989900;28;20195;-71
2023/02/24 10:09:23;;;;;;;8.57;7.13;;;;;;;3.13;100.00;100199.34;4990426;28;20180;-69
2023/02/24 10:11:54;;;;;;;11.77;7.70;;;;;;;3.18;100.00;100213.03;4990542;28;20269;-69
2023/02/24 10:15:17;;;;;;;10.87;7.23;;;;;;;3.17;100.00;100202.03;4990484;28;20192;-70
2023/02/24 10:17:54;;;;;;;9.73;7.30;;;;;;;3.14;100.00;100190.94;4986036;28;20656;-70
2023/02/24 10:20:38;;;;;;;9.60;7.03;;;;;;;3.08;100.00;100191.56;4987306;28;20195;-71
2023/02/24 10:23:28;;;;;;;9.00;6.23;;;;;;;3.10;100.00;100184.91;4991853;28;20208;-68
2023/02/24 10:26:02;;;;;;;7.50;5.73;;;;;;;3.20;100.00;100181.03;4960255;28;20189;-68
2023/02/24 10:28:44;;;;;;;9.40;6.37;;;;;;;3.20;100.00;100178.53;4986620;28;20267;-67
2023/02/24 10:31:34;;;;;;;10.40;5.90;;;;;;;3.27;100.00;100150.97;4984681;28;20208;-71
2023/02/24 10:34:06;;;;;;;8.80;5.80;;;;;;;3.32;100.00;100157.06;4992141;28;20654;-70
2023/02/24 10:36:36;;;;;;;7.40;5.83;;;;;;;3.47;100.00;100149.19;4971930;28;20206;-68
2023/02/24 10:39:19;;;;;;;9.10;5.63;;;;;;;3.45;100.00;100151.66;4987684;28;20198;-69
2023/02/24 10:41:57;;;;;;;7.57;5.83;;;;;;;3.62;100.00;100139.59;4983365;28;20247;-70
2023/02/24 10:44:25;;;;;;;6.40;4.87;;;;;;;3.58;100.00;100133.56;4986856;28;20187;-70
2023/02/24 10:47:10;;;;;;;6.97;5.13;;;;;;;3.59;100.00;100127.69;4981624;28;20200;-69
2023/02/24 10:50:04;;;;;;;7.57;5.10;;;;;;;3.60;100.00;100128.56;4989087;28;20850;-68
2023/02/24 10:58:26;;;;;;;7.03;5.23;;;;;;;3.65;100.00;100127.94;4974091;28;20234;-70
2023/02/24 11:01:12;;;;;;;9.07;5.53;;;;;;;3.57;100.00;100119.19;4987412;28;20230;-70
2023/02/24 11:03:46;;;;;;;8.20;6.27;;;;;;;3.55;100.00;100118.25;4981054;28;20272;-70
2023/02/24 11:17:55;;;;;;;9.93;8.30;;;;;;;3.63;100.00;100083.13;4984235;28;20200;-70
2023/02/24 11:20:45;;;;;;;11.93;8.00;;;;;;;3.68;100.00;100081.63;4985718;28;20211;-68
2023/02/24 11:23:48;;;;;;;11.07;8.17;;;;;;;3.68;100.00;100077.41;4987882;28;20249;-69
2023/02/24 11:26:17;;;;;;;11.63;9.40;;;;;;;3.76;100.00;100067.53;4979036;28;20587;-69
2023/02/24 11:28:51;;;;;;;10.70;7.70;;;;;;;3.87;100.00;100068.75;4990823;28;20195;-71
2023/02/24 11:31:33;;;;;;;11.53;8.90;;;;;;;3.94;100.00;100069.00;4988911;28;20218;-70
2023/02/24 11:34:10;;;;;;;11.00;9.10;;;;;;;3.91;100.00;100052.88;4993752;28;20534;-70
2023/02/24 11:36:46;;;;;;;12.27;9.07;;;;;;;3.83;100.00;100042.50;4990592;28;20202;-70
2023/02/24 11:39:15;;;;;;;11.37;8.50;;;;;;;4.05;100.00;100031.38;4989875;28;20661;-69
2023/02/24 11:41:46;;;;;;;10.90;8.70;;;;;;;4.09;100.00;100033.19;4988160;28;20227;-70
2023/02/24 11:44:33;;;;;;;13.00;9.17;;;;;;;4.18;100.00;100025.88;4991201;28;20203;-69
2023/02/24 11:47:06;;;;;;;11.70;9.53;;;;;;;4.19;100.00;100017.47;4984498;28;20227;-71
2023/02/24 11:49:40;;;;;;;13.20;9.77;;;;;;;4.18;100.00;100033.47;4985928;28;20207;-69
2023/02/24 11:52:13;;;;;;;14.23;10.07;;;;;;;4.09;100.00;100016.31;4983685;28;20234;-70
2023/02/24 11:54:44;;;;;;;10.97;9.20;;;;;;;4.12;100.00;100025.66;4987698;28;20720;-70
2023/02/24 11:57:16;;;;;;;14.13;9.77;;;;;;;4.16;100.00;100005.56;4985922;28;20212;-71
2023/02/24 11:59:47;;;;;;;14.17;10.27;;;;;;;4.25;100.00;99995.72;4988564;28;20211;-70
2023/02/24 12:02:21;;;;;;;12.87;9.63;;;;;;;4.30;100.00;99995.84;4988257;28;20591;-71
2023/02/24 12:05:01;;;;;;;13.67;10.33;;;;;;;4.35;100.00;99984.16;4986290;28;20261;-70
2023/02/24 12:08:00;;;;;;;12.87;10.20;;;;;;;4.30;100.00;99976.44;4984154;28;20669;-69
2023/02/24 12:10:30;;;;;;;14.67;10.60;;;;;;;4.31;100.00;99973.09;4991972;28;20554;-70
2023/02/24 12:13:12;;;;;;;12.97;10.23;;;;;;;4.41;100.00;99964.94;4983224;28;20325;-70
2023/02/24 12:16:26;;;;;;;13.57;9.87;;;;;;;4.58;100.00;99961.22;4988049;28;20291;-70
2023/02/24 12:19:19;;;;;;;11.70;9.70;;;;;;;4.49;100.00;99963.50;4984883;28;20208;-71
2023/02/24 12:21:58;;;;;;;13.70;10.40;;;;;;;4.43;100.00;99957.38;4979398;28;20586;-70
2023/02/24 12:24:24;;;;;;;11.60;9.33;;;;;;;4.46;100.00;99958.31;4979973;28;20223;-70